Time;durP1;ratioP1;P1;durP2;ratioP2;P2;SDS_P1;SDS_P2;PMS_P1;PMS_P2;Temp;Humidity;BMP_temperature;BMP_pressure;BME280_temperature;BME280_humidity;BME280_pressure;Samples;Min_cycle;Max_cycle;Signal;HPM_P1;HPM_P2
2022/07/28 00:01:08;;;;;;;1.67;1.58;;;;;;;23.08;49.58;100223.09;5590149;31;34573;-66
2022/07/28 00:04:11;;;;;;;2.03;1.30;;;;;;;23.02;49.51;100234.94;5589727;31;34906;-67
2022/07/28 00:07:14;;;;;;;1.52;1.30;;;;;;;22.91;49.76;100219.63;5589819;31;34920;-66
2022/07/28 00:10:16;;;;;;;1.60;1.33;;;;;;;22.85;49.97;100216.06;5590555;31;34298;-67
2022/07/28 00:13:19;;;;;;;2.35;1.25;;;;;;;22.78;50.24;100223.56;5590225;31;34143;-67
2022/07/28 00:16:22;;;;;;;2.25;1.10;;;;;;;22.82;50.25;100221.97;5590099;31;34927;-67
2022/07/28 00:19:25;;;;;;;2.20;1.37;;;;;;;22.71;50.69;100220.22;5589954;31;34972;-67
2022/07/28 00:22:28;;;;;;;1.90;1.40;;;;;;;22.70;50.53;100215.91;5590111;31;35435;-67
2022/07/28 00:25:30;;;;;;;2.55;1.50;;;;;;;22.73;50.61;100211.84;5589947;31;35487;-67
2022/07/28 00:28:34;;;;;;;2.55;1.20;;;;;;;22.72;50.62;100208.31;5589986;31;34220;-68
2022/07/28 00:31:36;;;;;;;3.15;1.40;;;;;;;22.73;51.07;100214.56;5589911;31;34168;-67
2022/07/28 00:34:39;;;;;;;2.25;1.30;;;;;;;22.68;50.97;100211.75;5589206;31;34518;-68
2022/07/28 00:37:43;;;;;;;2.58;1.30;;;;;;;22.70;51.54;100206.94;5590289;31;34144;-67
2022/07/28 00:44:11;;;;;;;2.05;1.58;;;;;;;22.75;51.04;100207.81;5590159;31;34879;-67
2022/07/28 00:47:15;;;;;;;3.62;1.50;;;;;;;22.73;51.55;100198.34;5589503;31;34261;-67
2022/07/28 00:50:18;;;;;;;2.40;2.00;;;;;;;22.76;51.74;100195.94;5589775;31;34543;-67
2022/07/28 00:53:22;;;;;;;2.60;1.70;;;;;;;22.61;52.41;100201.12;5589929;31;34893;-67
2022/07/28 00:56:25;;;;;;;2.60;1.60;;;;;;;22.59;52.32;100191.62;5590021;31;34330;-66
2022/07/28 00:59:27;;;;;;;3.22;2.10;;;;;;;22.62;52.75;100196.53;5575927;31;34890;-66
2022/07/28 01:02:30;;;;;;;2.50;1.80;;;;;;;22.51;53.33;100190.97;5590043;31;34858;-67
2022/07/28 01:05:49;;;;;;;2.58;2.20;;;;;;;22.44;53.79;100193.06;5589097;31;33353;-66
2022/07/28 01:09:22;;;;;;;3.62;1.90;;;;;;;22.46;54.08;100195.53;5589985;31;34538;-67
2022/07/28 01:12:38;;;;;;;3.35;1.98;;;;;;;22.29;54.89;100198.25;5589543;31;35104;-68
2022/07/28 01:15:54;;;;;;;4.12;2.15;;;;;;;22.19;55.31;100187.31;5589661;31;34837;-67
2022/07/28 01:19:03;;;;;;;3.87;2.35;;;;;;;22.12;56.84;100202.06;5587690;31;34307;-67
2022/07/28 01:22:11;;;;;;;4.47;2.47;;;;;;;22.09;56.08;100200.66;5589905;31;34897;-68
2022/07/28 01:25:28;;;;;;;4.85;2.20;;;;;;;22.05;56.13;100200.34;5589524;31;34120;-65
2022/07/28 01:29:11;;;;;;;3.62;2.33;;;;;;;21.93;56.66;100199.59;5589571;31;34865;-68
2022/07/28 01:32:27;;;;;;;2.50;2.03;;;;;;;21.86;57.41;100190.00;5589469;31;34925;-67
2022/07/28 01:35:36;;;;;;;3.20;2.20;;;;;;;21.85;57.23;100185.66;5588497;31;34230;-67
2022/07/28 01:38:41;;;;;;;3.42;2.00;;;;;;;21.80;57.91;100188.28;5589856;31;34584;-67
2022/07/28 01:41:45;;;;;;;2.90;1.83;;;;;;;21.70;58.50;100194.34;5588928;31;34935;-67
2022/07/28 01:44:50;;;;;;;3.47;2.20;;;;;;;21.66;58.51;100194.00;5589251;31;34239;-67
2022/07/28 01:47:55;;;;;;;3.95;2.17;;;;;;;21.65;59.71;100192.38;5589582;31;34185;-66
2022/07/28 01:51:00;;;;;;;3.37;2.10;;;;;;;21.61;59.40;100193.94;5588817;31;34165;-66
2022/07/28 01:54:05;;;;;;;2.80;2.20;;;;;;;21.56;59.51;100193.84;5589248;31;34673;-66
2022/07/28 01:57:13;;;;;;;2.55;2.10;;;;;;;21.52;59.93;100191.88;5589286;31;34127;-66
2022/07/28 02:00:16;;;;;;;2.80;2.10;;;;;;;21.49;61.45;100184.28;5589082;31;35002;-66
2022/07/28 02:03:21;;;;;;;3.00;1.90;;;;;;;21.39;61.31;100184.91;5589372;31;34231;-66
2022/07/28 02:06:25;;;;;;;3.55;2.08;;;;;;;21.29;61.57;100189.31;5588356;31;34243;-65
2022/07/28 02:09:30;;;;;;;3.25;2.30;;;;;;;21.19;62.10;100193.47;5589072;31;34093;-66
2022/07/28 02:12:34;;;;;;;5.05;2.20;;;;;;;21.10;62.36;100194.88;5588980;31;34174;-65
2022/07/28 02:15:38;;;;;;;4.05;2.40;;;;;;;21.05;62.30;100192.09;5588895;31;34255;-66
2022/07/28 02:18:43;;;;;;;5.35;2.70;;;;;;;21.04;62.25;100190.44;5588414;31;34838;-66
2022/07/28 02:21:48;;;;;;;8.02;2.95;;;;;;;21.02;62.64;100184.44;5588800;31;34333;-66
2022/07/28 02:24:52;;;;;;;7.70;2.80;;;;;;;21.00;63.32;100183.91;5588749;31;34150;-65
2022/07/28 02:28:02;;;;;;;3.37;2.30;;;;;;;20.99;64.35;100181.44;5588717;31;34751;-66
2022/07/28 02:31:18;;;;;;;2.37;1.90;;;;;;;21.20;63.12;100184.28;5588334;31;34244;-66
2022/07/28 02:34:29;;;;;;;4.55;2.15;;;;;;;21.20;62.38;100176.19;5588386;31;34579;-67
2022/07/28 02:37:36;;;;;;;3.72;2.42;;;;;;;21.13;63.28;100190.88;5587722;31;35521;-66
2022/07/28 02:40:41;;;;;;;4.80;2.10;;;;;;;21.08;63.14;100188.91;5588471;31;34888;-66
2022/07/28 02:43:47;;;;;;;2.92;2.08;;;;;;;21.02;63.74;100189.03;5587624;31;34344;-66
2022/07/28 02:46:56;;;;;;;3.62;2.35;;;;;;;21.03;63.65;100198.75;5588408;31;35527;-66
2022/07/28 02:50:01;;;;;;;5.60;2.00;;;;;;;21.10;63.39;100196.75;5588672;31;34863;-66
2022/07/28 02:53:04;;;;;;;3.95;2.28;;;;;;;21.18;63.32;100201.78;5588421;31;34050;-66
2022/07/28 02:56:18;;;;;;;4.20;2.25;;;;;;;21.28;63.04;100199.28;5588183;31;34272;-66
2022/07/28 02:59:22;;;;;;;2.85;2.08;;;;;;;21.38;63.85;100217.53;5588173;31;34300;-66
2022/07/28 03:02:25;;;;;;;3.12;1.80;;;;;;;21.49;62.85;100216.66;5588105;31;34192;-66
2022/07/28 03:05:28;;;;;;;3.33;2.25;;;;;;;21.58;62.05;100217.91;5587210;31;34740;-66
2022/07/28 03:08:31;;;;;;;4.72;2.15;;;;;;;21.65;62.02;100216.66;5588012;31;34253;-66
2022/07/28 03:11:34;;;;;;;5.87;2.37;;;;;;;21.73;62.08;100217.34;5588155;31;34286;-66
2022/07/28 03:14:37;;;;;;;3.47;2.30;;;;;;;21.76;62.18;100223.06;5587527;31;34887;-66
2022/07/28 03:17:40;;;;;;;3.03;2.17;;;;;;;21.85;61.23;100227.00;5587730;31;34967;-66
2022/07/28 03:20:42;;;;;;;4.97;2.50;;;;;;;21.93;60.32;100218.50;5588241;31;33933;-66
2022/07/28 03:23:49;;;;;;;3.58;2.10;;;;;;;21.91;60.30;100211.69;5587730;31;34872;-66
2022/07/28 03:27:11;;;;;;;3.53;2.42;;;;;;;21.96;60.92;100215.34;5587628;31;34197;-66
2022/07/28 03:30:17;;;;;;;3.12;1.95;;;;;;;21.91;61.04;100215.22;5587631;31;34249;-66
2022/07/28 03:33:20;;;;;;;2.97;2.17;;;;;;;21.83;61.63;100229.12;5587429;31;34803;-67
2022/07/28 03:36:29;;;;;;;4.97;2.30;;;;;;;21.74;62.10;100229.75;5587395;31;35158;-67
2022/07/28 03:39:37;;;;;;;2.90;2.30;;;;;;;21.65;61.58;100223.94;5587384;31;34321;-67
2022/07/28 03:42:46;;;;;;;3.50;2.40;;;;;;;21.79;60.84;100227.97;5588221;31;34176;-66
2022/07/28 03:45:49;;;;;;;3.72;2.30;;;;;;;21.93;60.84;100240.13;5589469;31;34231;-67
2022/07/28 03:48:52;;;;;;;5.62;2.62;;;;;;;21.90;60.86;100237.88;5590510;31;34323;-67
2022/07/28 03:51:55;;;;;;;3.92;2.47;;;;;;;21.83;61.59;100241.81;5590390;31;34282;-67
2022/07/28 03:54:58;;;;;;;4.78;2.45;;;;;;;21.79;61.92;100244.16;5590213;31;34756;-67
2022/07/28 03:58:00;;;;;;;4.07;2.30;;;;;;;21.87;61.86;100248.38;5589496;31;34094;-67
2022/07/28 04:01:03;;;;;;;3.33;2.37;;;;;;;22.00;62.30;100254.28;5589535;31;34204;-68
2022/07/28 04:04:06;;;;;;;9.20;2.40;;;;;;;22.07;61.79;100254.94;5589986;31;34379;-68
2022/07/28 04:07:09;;;;;;;10.23;2.42;;;;;;;22.21;63.23;100260.84;5590141;31;34178;-68
2022/07/28 04:10:14;;;;;;;7.60;2.75;;;;;;;22.23;63.12;100261.41;5590111;31;34252;-68
2022/07/28 04:13:16;;;;;;;5.00;2.37;;;;;;;22.28;63.55;100268.75;5590151;31;34167;-68
2022/07/28 04:16:19;;;;;;;3.80;2.50;;;;;;;22.34;62.85;100270.50;5590173;31;34193;-68
2022/07/28 04:19:23;;;;;;;3.35;2.25;;;;;;;22.34;64.33;100263.19;5589897;31;34096;-68
2022/07/28 04:22:26;;;;;;;3.50;2.30;;;;;;;22.46;63.00;100257.72;5589947;31;35445;-68
2022/07/28 04:25:29;;;;;;;6.45;2.50;;;;;;;22.47;62.77;100265.56;5589933;31;34920;-68
2022/07/28 04:28:32;;;;;;;5.43;2.60;;;;;;;22.50;63.49;100267.78;5589408;31;34273;-68
2022/07/28 04:31:34;;;;;;;5.05;2.75;;;;;;;22.64;62.30;100257.41;5590227;31;34146;-68
2022/07/28 04:34:37;;;;;;;6.25;2.85;;;;;;;22.75;60.92;100267.31;5589502;31;34845;-68
2022/07/28 04:37:40;;;;;;;3.72;2.60;;;;;;;22.87;60.85;100261.81;5589744;31;34277;-67
2022/07/28 04:40:44;;;;;;;5.72;2.72;;;;;;;22.92;61.40;100269.97;5589858;31;34150;-67
2022/07/28 04:43:46;;;;;;;4.60;2.83;;;;;;;22.78;60.86;100274.13;5589786;31;34777;-67
2022/07/28 04:46:49;;;;;;;4.70;2.55;;;;;;;22.86;60.29;100271.78;5588964;31;34833;-67
2022/07/28 04:49:52;;;;;;;4.28;2.85;;;;;;;22.77;61.37;100276.00;5589860;31;34511;-68
2022/07/28 04:52:55;;;;;;;3.78;2.90;;;;;;;22.72;61.63;100267.81;5589655;31;34153;-68
2022/07/28 04:55:58;;;;;;;5.40;2.90;;;;;;;22.86;60.53;100274.50;5589653;31;34958;-67
2022/07/28 04:59:00;;;;;;;4.68;2.75;;;;;;;22.90;60.38;100282.94;5588877;31;34249;-67
2022/07/28 05:02:05;;;;;;;5.85;2.97;;;;;;;23.06;59.71;100278.53;5589623;31;34370;-67
2022/07/28 05:05:08;;;;;;;4.75;3.12;;;;;;;23.03;60.01;100274.47;5588912;31;34951;-68
2022/07/28 05:08:11;;;;;;;5.00;2.70;;;;;;;23.16;59.51;100275.94;5589678;31;34174;-68
2022/07/28 05:11:14;;;;;;;6.40;2.75;;;;;;;23.08;60.57;100279.12;5589512;31;34290;-67
2022/07/28 05:14:17;;;;;;;4.87;2.95;;;;;;;23.20;59.90;100280.59;5589571;31;34640;-68
2022/07/28 05:17:20;;;;;;;4.30;2.80;;;;;;;23.39;58.63;100283.78;5589386;31;34371;-68
2022/07/28 05:20:22;;;;;;;4.68;2.80;;;;;;;23.47;58.22;100293.41;5588081;31;34632;-68
2022/07/28 05:23:25;;;;;;;5.05;2.75;;;;;;;23.56;57.81;100295.41;5589713;31;34207;-68
2022/07/28 05:26:29;;;;;;;5.15;2.72;;;;;;;23.58;57.30;100281.59;5588355;31;34670;-67
2022/07/28 05:29:33;;;;;;;3.72;2.60;;;;;;;23.69;57.99;100299.59;5589044;31;34152;-67
2022/07/28 05:32:49;;;;;;;6.15;2.62;;;;;;;23.79;57.73;100303.22;5589173;31;34241;-67
2022/07/28 05:35:56;;;;;;;5.95;2.65;;;;;;;24.06;57.93;100302.38;5588843;31;34719;-68
2022/07/28 05:38:58;;;;;;;3.50;2.50;;;;;;;24.06;57.61;100305.88;5588032;31;34276;-68
2022/07/28 05:42:01;;;;;;;5.12;2.45;;;;;;;23.90;57.10;100308.72;5589106;31;35480;-67
2022/07/28 05:45:06;;;;;;;4.18;2.90;;;;;;;23.98;57.46;100317.22;5588014;31;34012;-66
2022/07/28 05:48:20;;;;;;;3.97;2.67;;;;;;;23.81;57.72;100314.63;5588233;31;34144;-67
2022/07/28 05:51:22;;;;;;;5.10;2.83;;;;;;;23.95;57.85;100317.72;5588108;31;32723;-67
2022/07/28 05:54:25;;;;;;;6.85;2.60;;;;;;;23.83;57.90;100317.06;5588959;31;34239;-67
2022/07/28 05:57:28;;;;;;;3.95;2.65;;;;;;;23.77;57.21;100327.03;5588207;31;34943;-66
2022/07/28 06:00:34;;;;;;;7.40;2.60;;;;;;;23.99;56.88;100326.97;5588783;31;34291;-68
2022/07/28 06:03:37;;;;;;;3.40;2.58;;;;;;;24.50;55.72;100327.41;5588767;31;34855;-68
2022/07/28 06:06:44;;;;;;;5.45;2.45;;;;;;;24.70;56.02;100332.97;5588372;31;34376;-65
2022/07/28 06:09:47;;;;;;;6.28;2.50;;;;;;;24.34;55.70;100337.34;5588884;31;34833;-67
2022/07/28 06:12:54;;;;;;;4.12;2.60;;;;;;;24.66;56.49;100340.00;5574857;31;34268;-67
2022/07/28 06:15:58;;;;;;;5.20;2.47;;;;;;;24.81;54.37;100345.53;5588767;31;34308;-67
2022/07/28 06:19:01;;;;;;;3.90;2.42;;;;;;;24.72;54.89;100343.56;5588306;31;34968;-66
2022/07/28 06:22:05;;;;;;;6.57;2.60;;;;;;;24.94;54.12;100344.28;5588489;31;34311;-67
2022/07/28 06:25:14;;;;;;;2.83;2.17;;;;;;;25.12;53.06;100352.00;5587248;31;32681;-69
2022/07/28 06:28:18;;;;;;;5.85;2.37;;;;;;;24.90;53.88;100348.59;5587447;31;34255;-67
2022/07/28 06:31:21;;;;;;;3.40;2.50;;;;;;;25.16;53.47;100349.56;5587502;31;32452;-67
2022/07/28 06:34:24;;;;;;;14.87;3.50;;;;;;;25.37;53.50;100349.37;5588159;31;34885;-67
2022/07/28 06:37:27;;;;;;;5.70;2.30;;;;;;;25.18;54.10;100359.06;5587522;31;34899;-68
2022/07/28 06:40:30;;;;;;;5.65;2.47;;;;;;;25.14;53.21;100355.25;5588209;31;34142;-67
2022/07/28 06:43:33;;;;;;;6.25;2.80;;;;;;;25.08;54.12;100362.53;5588222;31;34255;-66
2022/07/28 06:46:40;;;;;;;5.45;2.78;;;;;;;25.32;52.10;100356.72;5588110;31;34782;-67
2022/07/28 06:49:43;;;;;;;5.15;2.53;;;;;;;25.56;51.73;100363.34;5588189;31;34820;-66
2022/07/28 06:52:46;;;;;;;4.95;2.75;;;;;;;25.13;52.41;100361.75;5588103;31;34949;-67
2022/07/28 06:55:49;;;;;;;6.15;2.65;;;;;;;25.34;51.53;100360.78;5587717;31;34270;-67
2022/07/28 06:58:52;;;;;;;5.65;2.55;;;;;;;25.50;50.67;100367.09;5587748;31;35623;-66
2022/07/28 07:02:00;;;;;;;9.38;2.50;;;;;;;25.78;48.70;100366.66;5588083;31;34815;-67
2022/07/28 07:05:03;;;;;;;3.12;2.37;;;;;;;25.94;47.53;100359.37;5587919;31;34915;-66
2022/07/28 07:08:06;;;;;;;5.22;2.30;;;;;;;26.37;46.45;100367.03;5586837;31;33636;-66
2022/07/28 07:11:09;;;;;;;4.43;2.72;;;;;;;26.60;44.85;100368.38;5587761;31;34264;-66
2022/07/28 07:14:12;;;;;;;6.43;2.17;;;;;;;26.94;45.07;100363.19;5586865;31;33279;-67
2022/07/28 07:17:15;;;;;;;5.05;2.65;;;;;;;27.26;43.06;100362.81;5588748;31;34222;-68
2022/07/28 07:20:18;;;;;;;16.17;2.90;;;;;;;27.66;43.16;100356.41;5590350;31;34202;-67
2022/07/28 07:23:21;;;;;;;6.37;2.58;;;;;;;27.73;42.92;100362.37;5590056;31;34227;-67
2022/07/28 07:26:24;;;;;;;5.15;2.40;;;;;;;27.23;43.76;100369.63;5589457;31;33638;-68
2022/07/28 07:29:27;;;;;;;9.07;2.53;;;;;;;27.56;42.51;100367.34;5590347;31;34916;-67
2022/07/28 07:32:32;;;;;;;5.93;2.60;;;;;;;27.85;42.15;100364.72;5590191;31;34240;-67
2022/07/28 07:35:36;;;;;;;4.32;2.53;;;;;;;28.05;42.79;100372.78;5590327;31;34202;-67
2022/07/28 07:38:39;;;;;;;4.53;2.28;;;;;;;28.43;40.61;100368.44;5590067;31;34831;-67
2022/07/28 07:41:42;;;;;;;5.30;2.37;;;;;;;28.16;41.01;100371.66;5590268;31;34674;-68
2022/07/28 07:44:45;;;;;;;3.40;2.30;;;;;;;28.29;41.24;100362.00;5589417;31;34761;-68
2022/07/28 07:47:52;;;;;;;5.43;3.03;;;;;;;28.97;39.37;100364.66;5589876;31;34222;-68
2022/07/28 07:50:54;;;;;;;2.75;2.08;;;;;;;29.47;39.50;100366.84;5590071;31;34256;-68
2022/07/28 07:53:57;;;;;;;2.95;2.37;;;;;;;29.36;38.95;100368.06;5589959;31;34298;-67
2022/07/28 07:57:20;;;;;;;5.62;2.97;;;;;;;29.38;37.35;100363.13;5510209;32;34052;-67
2022/07/28 08:00:23;;;;;;;8.18;2.40;;;;;;;29.44;38.25;100369.31;5547831;31;35409;-68
2022/07/28 08:03:31;;;;;;;8.70;2.40;;;;;;;30.62;36.53;100362.66;5576527;31;33600;-67
2022/07/28 08:06:34;;;;;;;6.37;2.42;;;;;;;31.66;34.03;100362.03;5589275;31;33706;-68
2022/07/28 08:09:37;;;;;;;3.92;1.90;;;;;;;31.76;33.11;100365.34;5590011;31;34089;-68
2022/07/28 08:12:40;;;;;;;4.25;2.37;;;;;;;32.09;33.03;100363.22;5589878;31;34422;-68
2022/07/28 08:15:43;;;;;;;3.50;2.33;;;;;;;31.68;33.03;100370.75;5589927;31;34958;-68
2022/07/28 08:18:45;;;;;;;8.93;2.35;;;;;;;31.74;33.52;100370.34;5588892;31;34205;-68
2022/07/28 08:21:48;;;;;;;4.07;2.30;;;;;;;31.42;34.21;100363.03;5589334;31;34264;-67
2022/07/28 08:24:52;;;;;;;4.53;2.12;;;;;;;32.23;33.05;100365.94;5588924;31;32969;-68
2022/07/28 08:27:55;;;;;;;5.22;2.17;;;;;;;32.74;32.13;100363.53;5588715;31;34932;-68
2022/07/28 08:30:57;;;;;;;3.00;2.00;;;;;;;32.58;31.45;100362.28;5589541;31;34104;-69
2022/07/28 08:34:02;;;;;;;3.53;1.73;;;;;;;33.66;29.50;100360.94;5588741;31;32811;-68
2022/07/28 08:37:25;;;;;;;6.62;2.28;;;;;;;34.71;27.94;100362.22;5589390;31;34942;-69
2022/07/28 08:40:28;;;;;;;4.28;2.22;;;;;;;33.44;30.06;100365.44;5589662;31;34679;-67
2022/07/28 08:43:36;;;;;;;3.92;1.90;;;;;;;33.96;30.20;100360.84;5589203;31;35078;-68
2022/07/28 08:46:41;;;;;;;3.23;1.80;;;;;;;35.48;26.39;100360.28;5589434;31;34183;-69
2022/07/28 08:49:46;;;;;;;5.85;2.03;;;;;;;36.15;25.46;100363.72;5588397;31;34385;-68
2022/07/28 08:52:53;;;;;;;4.05;2.00;;;;;;;36.35;25.52;100366.78;5589359;31;34954;-68
2022/07/28 08:56:03;;;;;;;4.45;1.90;;;;;;;36.76;25.31;100372.19;5589031;31;35017;-69
2022/07/28 08:59:16;;;;;;;2.95;2.10;;;;;;;36.37;25.02;100365.28;5588857;31;33677;-68
2022/07/28 09:02:27;;;;;;;3.30;1.92;;;;;;;36.64;25.85;100363.09;5589043;31;35413;-67
2022/07/28 09:05:33;;;;;;;4.07;2.10;;;;;;;36.95;25.41;100366.13;5576032;31;34900;-67
2022/07/28 09:08:37;;;;;;;2.35;1.83;;;;;;;36.77;24.57;100365.53;5588211;31;33415;-69
2022/07/28 09:11:40;;;;;;;3.40;1.92;;;;;;;36.49;24.12;100356.22;5589278;31;34137;-67
2022/07/28 09:14:43;;;;;;;3.03;2.00;;;;;;;35.53;25.16;100349.88;5588766;31;34328;-68
2022/07/28 09:17:46;;;;;;;2.67;1.80;;;;;;;36.04;25.49;100356.16;5589042;31;34823;-68
2022/07/28 09:20:49;;;;;;;3.72;1.77;;;;;;;36.82;24.98;100350.66;5575567;31;34437;-69
2022/07/28 09:23:52;;;;;;;5.80;2.00;;;;;;;37.15;24.41;100348.63;5589215;31;34248;-68
2022/07/28 09:27:09;;;;;;;3.65;1.90;;;;;;;37.57;23.23;100351.19;5575199;31;32986;-68
2022/07/28 09:30:12;;;;;;;6.93;1.98;;;;;;;36.74;24.09;100343.28;5575615;31;33319;-69
2022/07/28 09:33:18;;;;;;;3.72;1.87;;;;;;;37.95;22.07;100342.41;5588178;31;33895;-68
2022/07/28 09:36:41;;;;;;;2.53;1.67;;;;;;;37.53;22.92;100334.44;5588572;31;34820;-67
2022/07/28 09:39:45;;;;;;;2.10;1.48;;;;;;;36.63;23.49;100331.87;5588274;31;34925;-68
2022/07/28 09:42:54;;;;;;;2.90;1.52;;;;;;;37.50;22.83;100329.56;5589266;31;35057;-69
2022/07/28 09:46:26;;;;;;;5.03;1.62;;;;;;;38.44;21.28;100332.72;5589205;31;34786;-69
2022/07/28 09:49:41;;;;;;;2.20;1.50;;;;;;;38.40;20.75;100320.72;5578603;31;34201;-67
2022/07/28 09:52:45;;;;;;;4.05;1.95;;;;;;;39.06;20.54;100333.94;5588230;31;33612;-67
2022/07/28 09:55:58;;;;;;;2.22;1.40;;;;;;;37.84;21.62;100319.94;5589417;31;34461;-68
2022/07/28 09:59:02;;;;;;;3.10;1.60;;;;;;;38.90;20.95;100327.59;5574955;31;33088;-68
2022/07/28 10:02:06;;;;;;;2.97;1.67;;;;;;;40.18;20.06;100328.50;5588875;31;34201;-67
2022/07/28 10:05:11;;;;;;;2.08;1.55;;;;;;;40.31;19.24;100319.66;5589069;31;34380;-68
2022/07/28 10:08:13;;;;;;;2.78;1.60;;;;;;;41.76;18.48;100312.00;5588856;31;34267;-68
2022/07/28 10:11:19;;;;;;;2.78;1.45;;;;;;;40.61;18.47;100313.44;5588847;31;34592;-68
2022/07/28 10:14:31;;;;;;;2.58;1.87;;;;;;;38.80;21.12;100309.50;5588127;31;36598;-67
2022/07/28 10:17:34;;;;;;;1.90;1.50;;;;;;;37.12;22.24;100302.31;5587928;31;33566;-69
2022/07/28 10:20:37;;;;;;;2.12;1.58;;;;;;;39.21;19.49;100305.37;5588268;31;33193;-68
2022/07/28 10:23:45;;;;;;;3.30;1.87;;;;;;;38.12;20.92;100303.34;5575084;31;34866;-68
2022/07/28 10:26:48;;;;;;;;;;;;;;;39.36;19.76;100306.53;5588996;31;34194;-69
2022/07/28 10:29:59;;;;;;;2.85;1.92;;;;;;;38.83;20.51;100299.69;5588784;31;34566;-67
2022/07/28 10:33:13;;;;;;;3.78;1.67;;;;;;;39.76;19.29;100307.00;5588385;31;34909;-67
2022/07/28 10:36:23;;;;;;;3.47;1.90;;;;;;;40.65;18.41;100298.44;5588250;31;35023;-69
2022/07/28 10:39:36;;;;;;;9.02;1.70;;;;;;;41.16;18.15;100292.47;5588322;31;34431;-66
2022/07/28 10:42:39;;;;;;;4.20;1.90;;;;;;;41.83;18.80;100301.75;5587603;31;34568;-67
2022/07/28 10:45:43;;;;;;;2.75;1.92;;;;;;;41.28;17.74;100289.47;5588306;31;35488;-68
2022/07/28 10:49:07;;;;;;;3.90;1.67;;;;;;;40.76;19.04;100290.25;5588199;31;34873;-67
2022/07/28 10:52:16;;;;;;;5.50;1.70;;;;;;;41.42;18.20;100284.09;5576619;31;33066;-69
2022/07/28 10:55:49;;;;;;;3.25;1.77;;;;;;;42.53;17.31;100287.00;5589788;31;33196;-67
2022/07/28 10:59:22;;;;;;;2.30;1.60;;;;;;;42.81;16.60;100292.03;5589566;31;34378;-68
2022/07/28 11:02:44;;;;;;;2.28;1.60;;;;;;;44.10;15.66;100276.38;5589854;31;32656;-67
2022/07/28 11:05:46;;;;;;;2.87;1.63;;;;;;;42.86;16.40;100278.50;5590583;31;34304;-67
2022/07/28 11:08:51;;;;;;;4.15;1.67;;;;;;;38.91;20.03;100271.78;5590135;31;33432;-67
2022/07/28 11:11:57;;;;;;;3.55;2.00;;;;;;;37.25;21.87;100258.81;5590605;31;35670;-66
2022/07/28 11:15:00;;;;;;;7.50;2.00;;;;;;;36.66;22.42;100264.03;5589975;31;33557;-67
2022/07/28 11:18:21;;;;;;;5.85;1.92;;;;;;;37.03;22.30;100251.00;5590687;31;34272;-68
2022/07/28 11:21:25;;;;;;;2.40;2.00;;;;;;;39.44;19.43;100255.53;5590373;31;34988;-68
2022/07/28 11:25:04;;;;;;;2.30;1.95;;;;;;;39.02;20.29;100253.38;5590387;31;34690;-67
2022/07/28 11:28:23;;;;;;;2.80;2.10;;;;;;;36.85;22.52;100253.19;5584856;31;34431;-67
2022/07/28 11:31:44;;;;;;;3.90;2.00;;;;;;;36.12;23.07;100250.28;5589216;31;32894;-68
2022/07/28 11:35:17;;;;;;;7.43;1.92;;;;;;;36.24;23.57;100255.91;5589368;31;33446;-68
2022/07/28 11:38:21;;;;;;;2.70;1.92;;;;;;;34.71;25.29;100249.22;5577790;31;34679;-67
2022/07/28 11:41:31;;;;;;;3.95;1.83;;;;;;;34.91;24.87;100257.91;5590222;31;34227;-67
2022/07/28 11:44:35;;;;;;;3.00;2.00;;;;;;;34.23;26.28;100249.56;5589030;31;33718;-68
2022/07/28 11:47:38;;;;;;;4.62;1.80;;;;;;;33.95;25.98;100260.13;5589072;31;33360;-69
2022/07/28 11:50:42;;;;;;;3.25;1.92;;;;;;;34.09;25.79;100246.16;5590085;31;34268;-68
2022/07/28 11:53:46;;;;;;;3.50;2.03;;;;;;;34.16;26.27;100242.91;5590153;31;34447;-68
2022/07/28 11:56:57;;;;;;;9.23;2.10;;;;;;;33.94;26.70;100230.97;5589124;31;35555;-68
2022/07/28 12:00:04;;;;;;;4.43;2.35;;;;;;;33.75;26.93;100243.47;5590068;31;34374;-66
2022/07/28 12:03:09;;;;;;;2.28;1.98;;;;;;;34.42;25.90;100243.69;5589563;31;34541;-67
2022/07/28 12:06:14;;;;;;;14.02;2.03;;;;;;;35.75;23.63;100238.34;5589158;31;32699;-66
2022/07/28 12:09:31;;;;;;;5.28;2.08;;;;;;;35.73;23.94;100238.66;5577451;31;33288;-67
2022/07/28 12:12:51;;;;;;;6.30;2.33;;;;;;;36.57;23.27;100229.00;5589182;31;34905;-68
2022/07/28 12:15:54;;;;;;;4.95;2.20;;;;;;;37.92;21.27;100224.81;5589286;31;35486;-67
2022/07/28 12:18:59;;;;;;;3.42;2.03;;;;;;;37.78;21.48;100221.66;5589619;31;34968;-67
2022/07/28 12:22:36;;;;;;;2.80;1.95;;;;;;;38.22;21.73;100216.91;5586958;31;34453;-67
2022/07/28 12:25:41;;;;;;;4.62;2.08;;;;;;;40.25;19.13;100225.81;5589566;31;34145;-68
2022/07/28 12:28:50;;;;;;;3.87;2.00;;;;;;;40.66;18.47;100226.91;5589702;31;34710;-68
2022/07/28 12:31:54;;;;;;;3.47;2.00;;;;;;;44.07;15.26;100229.63;5589691;31;34926;-68
2022/07/28 12:34:58;;;;;;;5.18;1.70;;;;;;;45.70;14.60;100218.16;5589657;31;34191;-68
2022/07/28 12:38:00;;;;;;;2.45;1.80;;;;;;;47.34;12.80;100215.53;5589971;31;34543;-68
2022/07/28 12:41:12;;;;;;;2.47;1.80;;;;;;;47.61;12.76;100223.19;5589255;31;33494;-70
2022/07/28 12:44:15;;;;;;;3.42;1.90;;;;;;;41.55;17.07;100207.50;5589095;31;32671;-68
2022/07/28 12:47:26;;;;;;;4.93;2.08;;;;;;;38.86;20.13;100208.22;5589633;31;34352;-68
2022/07/28 12:50:38;;;;;;;2.85;1.80;;;;;;;37.29;21.61;100205.22;5589165;31;32817;-69
2022/07/28 12:53:50;;;;;;;2.72;2.25;;;;;;;37.47;22.93;100202.97;5589668;31;34472;-67
2022/07/28 12:56:54;;;;;;;3.83;1.80;;;;;;;39.58;19.84;100205.03;5588900;31;34626;-69
2022/07/28 13:00:04;;;;;;;7.28;1.98;;;;;;;38.11;21.33;100204.75;5589610;31;34867;-68
2022/07/28 13:03:27;;;;;;;3.70;1.90;;;;;;;39.74;19.42;100203.00;5589625;31;34196;-68
2022/07/28 13:06:30;;;;;;;4.05;2.28;;;;;;;37.15;21.64;100188.19;5589624;31;34271;-67
2022/07/28 13:09:40;;;;;;;4.90;2.30;;;;;;;35.10;24.24;100192.09;5588995;31;32806;-68
2022/07/28 13:12:43;;;;;;;5.55;2.45;;;;;;;33.34;27.14;100197.19;5589641;31;34240;-67
2022/07/28 13:16:10;;;;;;;4.37;2.42;;;;;;;33.03;27.13;100194.53;5588632;31;34249;-68
2022/07/28 13:19:20;;;;;;;5.10;2.25;;;;;;;32.63;27.92;100182.81;5580897;31;34098;-68
2022/07/28 13:22:26;;;;;;;6.35;2.42;;;;;;;32.16;28.48;100181.62;5589057;31;34197;-67
2022/07/28 13:25:29;;;;;;;6.32;2.40;;;;;;;31.99;29.05;100184.28;5588676;31;34299;-67
2022/07/28 13:28:34;;;;;;;3.85;2.25;;;;;;;32.15;29.47;100180.81;5589061;31;34862;-69
2022/07/28 13:31:37;;;;;;;4.30;2.22;;;;;;;32.75;28.07;100180.25;5589166;31;34193;-68
2022/07/28 13:34:41;;;;;;;5.68;2.42;;;;;;;34.53;27.17;100183.50;5588905;31;34192;-68
2022/07/28 13:37:44;;;;;;;3.22;2.22;;;;;;;34.85;25.88;100182.87;5588885;31;34610;-68
2022/07/28 13:40:46;;;;;;;4.95;2.53;;;;;;;34.82;25.55;100178.81;5588110;31;33628;-68
2022/07/28 13:43:50;;;;;;;3.40;2.25;;;;;;;36.06;23.54;100177.94;5588622;31;34160;-68
2022/07/28 13:46:53;;;;;;;3.45;2.20;;;;;;;35.19;25.84;100176.31;5587705;31;33911;-68
2022/07/28 13:49:57;;;;;;;3.97;2.60;;;;;;;33.86;26.23;100174.00;5588117;31;34281;-68
2022/07/28 13:52:59;;;;;;;4.53;2.60;;;;;;;34.87;24.74;100175.87;5588518;31;34531;-67
2022/07/28 13:56:08;;;;;;;8.20;2.50;;;;;;;34.57;25.25;100165.97;5575600;31;33555;-68
2022/07/28 13:59:12;;;;;;;5.90;2.50;;;;;;;33.94;26.47;100166.84;5588772;31;34181;-68
2022/07/28 14:02:15;;;;;;;4.55;2.20;;;;;;;32.83;28.24;100159.41;5588003;31;34271;-68
2022/07/28 14:05:18;;;;;;;5.50;2.50;;;;;;;32.11;29.55;100152.41;5587315;31;33508;-67
2022/07/28 14:08:22;;;;;;;3.53;2.25;;;;;;;31.87;29.34;100151.91;5587805;31;34063;-68
2022/07/28 14:11:27;;;;;;;5.97;2.50;;;;;;;35.71;25.11;100152.66;5588464;31;34231;-68
2022/07/28 14:14:29;;;;;;;6.50;2.33;;;;;;;40.25;19.86;100161.88;5587687;31;34424;-66
2022/07/28 14:17:32;;;;;;;2.90;1.90;;;;;;;41.82;17.81;100165.59;5587201;31;34214;-67
2022/07/28 14:20:46;;;;;;;7.90;2.42;;;;;;;37.85;21.71;100163.69;5588892;31;34843;-67
2022/07/28 14:23:50;;;;;;;5.60;2.47;;;;;;;35.59;23.98;100160.03;5588967;31;34179;-68
2022/07/28 14:26:53;;;;;;;3.25;2.30;;;;;;;34.00;26.41;100149.84;5588017;31;34837;-68
2022/07/28 14:29:56;;;;;;;6.28;2.15;;;;;;;33.38;27.49;100152.22;5587534;31;32821;-66